sensor_id;sensor_type;location;lat;lon;timestamp;P1;durP1;ratioP1;P2;durP2;ratioP2
2548;SDS011;1284;53.520;10.248;2022-12-26T00:01:52;4.15;;;2.25;;
2548;SDS011;1284;53.520;10.248;2022-12-26T00:04:18;8.02;;;2.85;;
2548;SDS011;1284;53.520;10.248;2022-12-26T00:06:44;8.65;;;3.40;;
2548;SDS011;1284;53.520;10.248;2022-12-26T00:09:10;4.00;;;2.83;;
2548;SDS011;1284;53.520;10.248;2022-12-26T00:11:36;4.85;;;2.63;;
2548;SDS011;1284;53.520;10.248;2022-12-26T00:14:06;7.13;;;3.33;;
2548;SDS011;1284;53.520;10.248;2022-12-26T00:16:34;4.68;;;2.28;;
2548;SDS011;1284;53.520;10.248;2022-12-26T00:19:00;4.93;;;2.15;;
2548;SDS011;1284;53.520;10.248;2022-12-26T00:21:27;4.07;;;2.35;;
2548;SDS011;1284;53.520;10.248;2022-12-26T00:23:54;5.07;;;2.20;;
2548;SDS011;1284;53.520;10.248;2022-12-26T00:26:22;4.30;;;2.42;;
2548;SDS011;1284;53.520;10.248;2022-12-26T00:28:49;5.07;;;2.08;;
2548;SDS011;1284;53.520;10.248;2022-12-26T00:31:18;6.05;;;2.60;;
2548;SDS011;1284;53.520;10.248;2022-12-26T00:33:45;4.68;;;1.92;;
2548;SDS011;1284;53.520;10.248;2022-12-26T00:36:15;4.15;;;2.05;;
2548;SDS011;1284;53.520;10.248;2022-12-26T00:38:43;7.38;;;2.70;;
2548;SDS011;1284;53.520;10.248;2022-12-26T00:41:09;5.70;;;2.40;;
2548;SDS011;1284;53.520;10.248;2022-12-26T00:43:36;6.07;;;2.78;;
2548;SDS011;1284;53.520;10.248;2022-12-26T00:46:03;8.00;;;2.25;;
2548;SDS011;1284;53.520;10.248;2022-12-26T00:48:29;6.40;;;2.85;;
2548;SDS011;1284;53.520;10.248;2022-12-26T00:50:55;5.55;;;2.65;;
2548;SDS011;1284;53.520;10.248;2022-12-26T00:53:21;5.22;;;2.20;;
2548;SDS011;1284;53.520;10.248;2022-12-26T00:55:47;4.47;;;2.28;;
2548;SDS011;1284;53.520;10.248;2022-12-26T00:58:13;6.68;;;2.10;;
2548;SDS011;1284;53.520;10.248;2022-12-26T01:00:39;2.22;;;1.38;;
2548;SDS011;1284;53.520;10.248;2022-12-26T01:03:07;5.05;;;2.75;;
2548;SDS011;1284;53.520;10.248;2022-12-26T01:05:35;5.75;;;2.38;;
2548;SDS011;1284;53.520;10.248;2022-12-26T01:08:05;3.70;;;2.17;;
2548;SDS011;1284;53.520;10.248;2022-12-26T01:10:30;4.25;;;2.22;;
2548;SDS011;1284;53.520;10.248;2022-12-26T01:12:56;5.10;;;2.90;;
2548;SDS011;1284;53.520;10.248;2022-12-26T01:15:22;3.00;;;1.65;;
2548;SDS011;1284;53.520;10.248;2022-12-26T01:17:47;3.70;;;1.90;;
2548;SDS011;1284;53.520;10.248;2022-12-26T01:20:12;3.78;;;1.70;;
2548;SDS011;1284;53.520;10.248;2022-12-26T01:22:38;3.55;;;2.03;;
2548;SDS011;1284;53.520;10.248;2022-12-26T01:25:03;7.00;;;1.80;;
2548;SDS011;1284;53.520;10.248;2022-12-26T01:27:29;5.68;;;2.13;;
2548;SDS011;1284;53.520;10.248;2022-12-26T01:29:55;4.55;;;2.35;;
2548;SDS011;1284;53.520;10.248;2022-12-26T01:32:21;5.32;;;1.73;;
2548;SDS011;1284;53.520;10.248;2022-12-26T01:34:47;7.82;;;2.20;;
2548;SDS011;1284;53.520;10.248;2022-12-26T01:37:13;3.95;;;2.13;;
2548;SDS011;1284;53.520;10.248;2022-12-26T01:39:39;3.80;;;2.45;;
2548;SDS011;1284;53.520;10.248;2022-12-26T01:42:10;6.15;;;2.50;;
2548;SDS011;1284;53.520;10.248;2022-12-26T01:47:22;6.38;;;2.53;;
2548;SDS011;1284;53.520;10.248;2022-12-26T01:49:53;4.93;;;2.28;;
2548;SDS011;1284;53.520;10.248;2022-12-26T01:52:39;5.72;;;2.72;;
2548;SDS011;1284;53.520;10.248;2022-12-26T01:55:10;7.32;;;2.45;;
2548;SDS011;1284;53.520;10.248;2022-12-26T01:57:39;4.63;;;2.70;;
2548;SDS011;1284;53.520;10.248;2022-12-26T02:00:08;8.50;;;3.03;;
2548;SDS011;1284;53.520;10.248;2022-12-26T02:02:43;6.20;;;2.78;;
2548;SDS011;1284;53.520;10.248;2022-12-26T02:05:28;4.13;;;2.05;;
2548;SDS011;1284;53.520;10.248;2022-12-26T02:08:11;6.60;;;2.63;;
2548;SDS011;1284;53.520;10.248;2022-12-26T02:11:26;4.22;;;2.45;;
2548;SDS011;1284;53.520;10.248;2022-12-26T02:13:44;5.82;;;2.53;;
2548;SDS011;1284;53.520;10.248;2022-12-26T02:16:12;5.88;;;2.25;;
2548;SDS011;1284;53.520;10.248;2022-12-26T02:18:40;7.60;;;2.30;;
2548;SDS011;1284;53.520;10.248;2022-12-26T02:29:35;5.45;;;2.17;;
2548;SDS011;1284;53.520;10.248;2022-12-26T02:40:52;4.93;;;2.13;;
2548;SDS011;1284;53.520;10.248;2022-12-26T02:43:36;7.50;;;2.78;;
2548;SDS011;1284;53.520;10.248;2022-12-26T02:46:12;5.50;;;2.97;;
2548;SDS011;1284;53.520;10.248;2022-12-26T02:49:16;6.15;;;2.05;;
2548;SDS011;1284;53.520;10.248;2022-12-26T02:51:58;5.50;;;2.15;;
2548;SDS011;1284;53.520;10.248;2022-12-26T03:01:05;3.75;;;2.08;;
2548;SDS011;1284;53.520;10.248;2022-12-26T03:04:12;3.10;;;1.50;;
2548;SDS011;1284;53.520;10.248;2022-12-26T03:07:00;5.75;;;2.45;;
2548;SDS011;1284;53.520;10.248;2022-12-26T03:10:13;3.88;;;1.75;;
2548;SDS011;1284;53.520;10.248;2022-12-26T03:13:03;5.15;;;2.45;;
2548;SDS011;1284;53.520;10.248;2022-12-26T03:15:36;6.20;;;1.83;;
2548;SDS011;1284;53.520;10.248;2022-12-26T03:18:24;5.55;;;2.40;;
2548;SDS011;1284;53.520;10.248;2022-12-26T03:20:53;8.90;;;2.70;;
2548;SDS011;1284;53.520;10.248;2022-12-26T03:23:21;4.80;;;2.10;;
2548;SDS011;1284;53.520;10.248;2022-12-26T03:25:56;5.95;;;2.35;;
2548;SDS011;1284;53.520;10.248;2022-12-26T03:28:44;5.28;;;2.58;;
2548;SDS011;1284;53.520;10.248;2022-12-26T03:31:12;6.32;;;2.58;;
2548;SDS011;1284;53.520;10.248;2022-12-26T03:33:40;4.18;;;2.45;;
2548;SDS011;1284;53.520;10.248;2022-12-26T03:48:25;6.25;;;2.35;;
2548;SDS011;1284;53.520;10.248;2022-12-26T03:51:18;4.18;;;2.05;;
2548;SDS011;1284;53.520;10.248;2022-12-26T03:54:25;5.75;;;2.85;;
2548;SDS011;1284;53.520;10.248;2022-12-26T03:57:14;6.55;;;3.03;;
2548;SDS011;1284;53.520;10.248;2022-12-26T04:00:07;5.18;;;2.20;;
2548;SDS011;1284;53.520;10.248;2022-12-26T04:02:55;4.97;;;2.28;;
2548;SDS011;1284;53.520;10.248;2022-12-26T04:05:43;6.15;;;2.92;;
2548;SDS011;1284;53.520;10.248;2022-12-26T04:08:33;7.10;;;3.22;;
2548;SDS011;1284;53.520;10.248;2022-12-26T04:11:33;5.00;;;2.38;;
2548;SDS011;1284;53.520;10.248;2022-12-26T04:14:24;4.07;;;2.47;;
2548;SDS011;1284;53.520;10.248;2022-12-26T04:26:03;5.60;;;2.53;;
2548;SDS011;1284;53.520;10.248;2022-12-26T04:28:52;2.88;;;1.92;;
2548;SDS011;1284;53.520;10.248;2022-12-26T04:31:44;5.10;;;2.88;;
2548;SDS011;1284;53.520;10.248;2022-12-26T04:34:54;6.18;;;3.30;;
2548;SDS011;1284;53.520;10.248;2022-12-26T04:37:47;5.85;;;2.42;;
2548;SDS011;1284;53.520;10.248;2022-12-26T04:40:35;5.20;;;2.70;;
2548;SDS011;1284;53.520;10.248;2022-12-26T04:43:23;8.23;;;2.35;;
2548;SDS011;1284;53.520;10.248;2022-12-26T04:46:11;5.55;;;2.83;;
2548;SDS011;1284;53.520;10.248;2022-12-26T04:48:41;9.32;;;3.28;;
2548;SDS011;1284;53.520;10.248;2022-12-26T04:51:27;7.17;;;3.30;;
2548;SDS011;1284;53.520;10.248;2022-12-26T04:53:53;8.10;;;3.67;;
2548;SDS011;1284;53.520;10.248;2022-12-26T04:56:18;8.10;;;3.30;;
2548;SDS011;1284;53.520;10.248;2022-12-26T04:58:44;7.05;;;3.28;;
2548;SDS011;1284;53.520;10.248;2022-12-26T05:01:09;6.78;;;2.72;;
2548;SDS011;1284;53.520;10.248;2022-12-26T05:03:54;7.13;;;2.83;;
2548;SDS011;1284;53.520;10.248;2022-12-26T05:06:38;10.02;;;3.15;;
2548;SDS011;1284;53.520;10.248;2022-12-26T05:09:22;7.50;;;3.20;;
2548;SDS011;1284;53.520;10.248;2022-12-26T05:12:04;6.13;;;2.97;;
2548;SDS011;1284;53.520;10.248;2022-12-26T05:14:31;6.60;;;3.33;;
2548;SDS011;1284;53.520;10.248;2022-12-26T05:17:00;6.97;;;2.92;;
2548;SDS011;1284;53.520;10.248;2022-12-26T05:19:50;9.37;;;3.73;;
2548;SDS011;1284;53.520;10.248;2022-12-26T05:22:39;6.72;;;3.13;;
2548;SDS011;1284;53.520;10.248;2022-12-26T05:25:25;7.50;;;3.53;;
2548;SDS011;1284;53.520;10.248;2022-12-26T05:28:12;7.95;;;3.75;;
2548;SDS011;1284;53.520;10.248;2022-12-26T05:30:58;4.05;;;2.25;;
2548;SDS011;1284;53.520;10.248;2022-12-26T05:33:23;6.70;;;2.63;;
2548;SDS011;1284;53.520;10.248;2022-12-26T05:36:08;7.90;;;3.45;;
2548;SDS011;1284;53.520;10.248;2022-12-26T05:38:34;7.68;;;3.50;;
2548;SDS011;1284;53.520;10.248;2022-12-26T05:41:01;7.10;;;2.95;;
2548;SDS011;1284;53.520;10.248;2022-12-26T05:43:27;9.45;;;3.08;;
2548;SDS011;1284;53.520;10.248;2022-12-26T05:45:52;6.82;;;3.35;;
2548;SDS011;1284;53.520;10.248;2022-12-26T05:48:18;7.63;;;3.13;;
2548;SDS011;1284;53.520;10.248;2022-12-26T05:50:43;8.88;;;3.17;;
2548;SDS011;1284;53.520;10.248;2022-12-26T05:53:08;9.40;;;4.20;;
2548;SDS011;1284;53.520;10.248;2022-12-26T05:55:34;7.88;;;2.90;;
2548;SDS011;1284;53.520;10.248;2022-12-26T05:57:59;7.05;;;3.13;;
2548;SDS011;1284;53.520;10.248;2022-12-26T06:00:25;7.55;;;3.67;;
2548;SDS011;1284;53.520;10.248;2022-12-26T06:02:51;10.48;;;3.13;;
2548;SDS011;1284;53.520;10.248;2022-12-26T06:05:17;7.25;;;3.15;;
2548;SDS011;1284;53.520;10.248;2022-12-26T06:07:43;9.45;;;4.30;;
2548;SDS011;1284;53.520;10.248;2022-12-26T06:10:08;8.73;;;3.63;;
2548;SDS011;1284;53.520;10.248;2022-12-26T06:12:34;8.60;;;3.90;;
2548;SDS011;1284;53.520;10.248;2022-12-26T06:15:00;6.63;;;3.90;;
2548;SDS011;1284;53.520;10.248;2022-12-26T06:17:25;8.80;;;3.97;;
2548;SDS011;1284;53.520;10.248;2022-12-26T06:19:51;9.43;;;3.17;;
2548;SDS011;1284;53.520;10.248;2022-12-26T06:22:16;7.78;;;3.45;;
2548;SDS011;1284;53.520;10.248;2022-12-26T06:24:41;11.85;;;4.05;;
2548;SDS011;1284;53.520;10.248;2022-12-26T06:27:07;6.38;;;3.00;;
2548;SDS011;1284;53.520;10.248;2022-12-26T06:29:32;7.15;;;3.38;;
2548;SDS011;1284;53.520;10.248;2022-12-26T06:31:58;7.75;;;3.97;;
2548;SDS011;1284;53.520;10.248;2022-12-26T06:34:24;7.97;;;3.25;;
2548;SDS011;1284;53.520;10.248;2022-12-26T06:36:49;8.65;;;3.80;;
2548;SDS011;1284;53.520;10.248;2022-12-26T06:39:14;6.28;;;2.65;;
2548;SDS011;1284;53.520;10.248;2022-12-26T06:41:40;8.45;;;3.03;;
2548;SDS011;1284;53.520;10.248;2022-12-26T06:44:05;8.52;;;3.97;;
2548;SDS011;1284;53.520;10.248;2022-12-26T06:46:31;5.45;;;2.90;;
2548;SDS011;1284;53.520;10.248;2022-12-26T06:48:56;5.65;;;3.17;;
2548;SDS011;1284;53.520;10.248;2022-12-26T06:51:23;4.82;;;2.97;;
2548;SDS011;1284;53.520;10.248;2022-12-26T06:53:50;5.65;;;2.67;;
2548;SDS011;1284;53.520;10.248;2022-12-26T06:56:18;5.35;;;2.83;;
2548;SDS011;1284;53.520;10.248;2022-12-26T06:58:51;6.82;;;2.85;;
2548;SDS011;1284;53.520;10.248;2022-12-26T07:01:21;3.72;;;2.42;;
2548;SDS011;1284;53.520;10.248;2022-12-26T07:03:50;6.82;;;2.90;;
2548;SDS011;1284;53.520;10.248;2022-12-26T07:06:23;5.32;;;2.30;;
2548;SDS011;1284;53.520;10.248;2022-12-26T07:08:52;4.22;;;2.47;;
2548;SDS011;1284;53.520;10.248;2022-12-26T07:11:21;6.68;;;3.03;;
2548;SDS011;1284;53.520;10.248;2022-12-26T07:13:48;5.97;;;2.80;;
2548;SDS011;1284;53.520;10.248;2022-12-26T07:16:14;5.78;;;2.88;;
2548;SDS011;1284;53.520;10.248;2022-12-26T07:18:40;6.07;;;3.05;;
2548;SDS011;1284;53.520;10.248;2022-12-26T07:21:09;6.00;;;2.20;;
2548;SDS011;1284;53.520;10.248;2022-12-26T07:23:39;6.03;;;2.90;;
2548;SDS011;1284;53.520;10.248;2022-12-26T07:26:05;5.20;;;2.83;;
2548;SDS011;1284;53.520;10.248;2022-12-26T07:28:31;4.93;;;2.38;;
2548;SDS011;1284;53.520;10.248;2022-12-26T07:30:57;5.60;;;2.70;;
2548;SDS011;1284;53.520;10.248;2022-12-26T07:33:24;5.30;;;2.60;;
2548;SDS011;1284;53.520;10.248;2022-12-26T07:35:50;6.18;;;2.83;;
2548;SDS011;1284;53.520;10.248;2022-12-26T07:38:16;6.18;;;3.20;;
2548;SDS011;1284;53.520;10.248;2022-12-26T07:40:41;7.82;;;2.83;;
2548;SDS011;1284;53.520;10.248;2022-12-26T07:43:07;6.45;;;2.80;;
2548;SDS011;1284;53.520;10.248;2022-12-26T07:45:32;4.43;;;2.28;;
2548;SDS011;1284;53.520;10.248;2022-12-26T07:47:57;5.35;;;2.63;;
2548;SDS011;1284;53.520;10.248;2022-12-26T07:50:24;4.32;;;2.40;;
2548;SDS011;1284;53.520;10.248;2022-12-26T07:52:51;4.32;;;2.53;;
2548;SDS011;1284;53.520;10.248;2022-12-26T07:55:17;6.38;;;3.05;;
2548;SDS011;1284;53.520;10.248;2022-12-26T07:57:43;6.43;;;3.03;;
2548;SDS011;1284;53.520;10.248;2022-12-26T08:00:08;8.15;;;3.78;;
2548;SDS011;1284;53.520;10.248;2022-12-26T08:02:37;9.45;;;3.95;;
2548;SDS011;1284;53.520;10.248;2022-12-26T08:05:03;7.40;;;3.38;;
2548;SDS011;1284;53.520;10.248;2022-12-26T08:07:28;6.05;;;3.42;;
2548;SDS011;1284;53.520;10.248;2022-12-26T08:09:54;7.22;;;4.05;;
2548;SDS011;1284;53.520;10.248;2022-12-26T08:12:19;9.30;;;3.97;;
2548;SDS011;1284;53.520;10.248;2022-12-26T08:14:46;5.85;;;3.30;;
2548;SDS011;1284;53.520;10.248;2022-12-26T08:17:12;7.45;;;3.85;;
2548;SDS011;1284;53.520;10.248;2022-12-26T08:19:38;9.18;;;4.50;;
2548;SDS011;1284;53.520;10.248;2022-12-26T08:22:03;10.13;;;4.55;;
2548;SDS011;1284;53.520;10.248;2022-12-26T08:24:29;8.75;;;4.20;;
2548;SDS011;1284;53.520;10.248;2022-12-26T08:26:55;11.63;;;4.55;;
2548;SDS011;1284;53.520;10.248;2022-12-26T08:29:21;11.00;;;4.88;;
2548;SDS011;1284;53.520;10.248;2022-12-26T08:31:46;8.48;;;3.72;;
2548;SDS011;1284;53.520;10.248;2022-12-26T08:34:11;7.07;;;4.32;;
2548;SDS011;1284;53.520;10.248;2022-12-26T08:36:37;10.00;;;4.68;;
2548;SDS011;1284;53.520;10.248;2022-12-26T08:39:03;14.60;;;5.88;;
2548;SDS011;1284;53.520;10.248;2022-12-26T08:41:29;12.77;;;5.68;;
2548;SDS011;1284;53.520;10.248;2022-12-26T08:43:54;9.10;;;4.15;;
2548;SDS011;1284;53.520;10.248;2022-12-26T08:46:42;10.80;;;4.82;;
2548;SDS011;1284;53.520;10.248;2022-12-26T08:49:08;8.75;;;4.03;;
2548;SDS011;1284;53.520;10.248;2022-12-26T08:51:34;9.05;;;4.05;;
2548;SDS011;1284;53.520;10.248;2022-12-26T08:53:59;10.75;;;4.75;;
2548;SDS011;1284;53.520;10.248;2022-12-26T08:56:25;12.68;;;5.18;;
2548;SDS011;1284;53.520;10.248;2022-12-26T08:58:51;10.15;;;5.30;;
2548;SDS011;1284;53.520;10.248;2022-12-26T09:01:18;11.48;;;5.32;;
2548;SDS011;1284;53.520;10.248;2022-12-26T09:03:53;14.05;;;5.05;;
2548;SDS011;1284;53.520;10.248;2022-12-26T09:06:19;8.68;;;4.85;;
2548;SDS011;1284;53.520;10.248;2022-12-26T09:08:45;8.98;;;4.40;;
2548;SDS011;1284;53.520;10.248;2022-12-26T09:11:11;12.10;;;5.40;;
2548;SDS011;1284;53.520;10.248;2022-12-26T09:13:39;10.88;;;5.22;;
2548;SDS011;1284;53.520;10.248;2022-12-26T09:18:35;14.65;;;6.32;;
2548;SDS011;1284;53.520;10.248;2022-12-26T09:21:01;10.52;;;5.63;;
2548;SDS011;1284;53.520;10.248;2022-12-26T09:23:28;11.68;;;5.32;;
2548;SDS011;1284;53.520;10.248;2022-12-26T09:25:54;15.05;;;5.97;;
2548;SDS011;1284;53.520;10.248;2022-12-26T09:28:20;17.30;;;5.88;;
2548;SDS011;1284;53.520;10.248;2022-12-26T09:30:46;17.05;;;5.70;;
2548;SDS011;1284;53.520;10.248;2022-12-26T09:33:11;12.38;;;5.70;;
2548;SDS011;1284;53.520;10.248;2022-12-26T09:35:40;15.27;;;5.88;;
2548;SDS011;1284;53.520;10.248;2022-12-26T09:38:05;12.38;;;6.05;;
2548;SDS011;1284;53.520;10.248;2022-12-26T09:40:32;10.90;;;4.70;;
2548;SDS011;1284;53.520;10.248;2022-12-26T09:43:54;15.57;;;7.10;;
2548;SDS011;1284;53.520;10.248;2022-12-26T09:46:23;12.38;;;5.55;;
2548;SDS011;1284;53.520;10.248;2022-12-26T09:49:16;12.88;;;4.72;;
2548;SDS011;1284;53.520;10.248;2022-12-26T09:51:47;9.05;;;4.15;;
2548;SDS011;1284;53.520;10.248;2022-12-26T09:54:39;9.55;;;4.13;;
2548;SDS011;1284;53.520;10.248;2022-12-26T09:57:15;11.00;;;4.82;;
2548;SDS011;1284;53.520;10.248;2022-12-26T09:59:49;12.98;;;5.13;;
2548;SDS011;1284;53.520;10.248;2022-12-26T10:02:20;13.80;;;5.15;;
2548;SDS011;1284;53.520;10.248;2022-12-26T10:04:47;12.60;;;5.00;;
2548;SDS011;1284;53.520;10.248;2022-12-26T10:23:16;15.75;;;4.82;;
2548;SDS011;1284;53.520;10.248;2022-12-26T10:25:51;9.77;;;3.85;;
2548;SDS011;1284;53.520;10.248;2022-12-26T10:34:16;15.35;;;5.13;;
2548;SDS011;1284;53.520;10.248;2022-12-26T10:36:53;9.15;;;3.42;;
2548;SDS011;1284;53.520;10.248;2022-12-26T10:39:39;11.07;;;4.57;;
2548;SDS011;1284;53.520;10.248;2022-12-26T10:44:43;11.38;;;4.78;;
2548;SDS011;1284;53.520;10.248;2022-12-26T10:49:46;9.70;;;4.43;;
2548;SDS011;1284;53.520;10.248;2022-12-26T10:52:13;8.07;;;4.18;;
2548;SDS011;1284;53.520;10.248;2022-12-26T10:54:41;9.40;;;4.82;;
2548;SDS011;1284;53.520;10.248;2022-12-26T10:57:09;12.68;;;4.80;;
2548;SDS011;1284;53.520;10.248;2022-12-26T10:59:46;8.07;;;3.53;;
2548;SDS011;1284;53.520;10.248;2022-12-26T11:05:01;7.22;;;3.70;;
2548;SDS011;1284;53.520;10.248;2022-12-26T11:07:36;10.02;;;4.22;;
2548;SDS011;1284;53.520;10.248;2022-12-26T11:10:12;8.88;;;3.75;;
2548;SDS011;1284;53.520;10.248;2022-12-26T11:12:48;12.85;;;4.65;;
2548;SDS011;1284;53.520;10.248;2022-12-26T11:17:54;11.13;;;5.03;;
2548;SDS011;1284;53.520;10.248;2022-12-26T11:20:51;11.07;;;4.45;;
2548;SDS011;1284;53.520;10.248;2022-12-26T11:25:53;10.15;;;4.13;;
2548;SDS011;1284;53.520;10.248;2022-12-26T11:28:28;9.43;;;4.20;;
2548;SDS011;1284;53.520;10.248;2022-12-26T11:30:54;9.63;;;4.28;;
2548;SDS011;1284;53.520;10.248;2022-12-26T11:33:22;10.52;;;4.38;;
2548;SDS011;1284;53.520;10.248;2022-12-26T11:36:04;8.63;;;3.83;;
2548;SDS011;1284;53.520;10.248;2022-12-26T11:38:39;12.50;;;4.43;;
2548;SDS011;1284;53.520;10.248;2022-12-26T11:46:48;7.00;;;3.47;;
2548;SDS011;1284;53.520;10.248;2022-12-26T11:49:30;10.98;;;4.80;;
2548;SDS011;1284;53.520;10.248;2022-12-26T11:51:57;8.63;;;3.75;;
2548;SDS011;1284;53.520;10.248;2022-12-26T11:54:25;9.00;;;3.22;;
2548;SDS011;1284;53.520;10.248;2022-12-26T11:57:01;9.07;;;4.10;;
2548;SDS011;1284;53.520;10.248;2022-12-26T11:59:35;10.68;;;4.75;;
2548;SDS011;1284;53.520;10.248;2022-12-26T12:04:46;10.38;;;3.83;;
2548;SDS011;1284;53.520;10.248;2022-12-26T12:13:09;9.30;;;4.03;;
2548;SDS011;1284;53.520;10.248;2022-12-26T12:29:28;7.90;;;3.33;;
2548;SDS011;1284;53.520;10.248;2022-12-26T12:54:01;9.07;;;3.22;;
2548;SDS011;1284;53.520;10.248;2022-12-26T13:02:03;6.65;;;4.05;;
2548;SDS011;1284;53.520;10.248;2022-12-26T13:04:40;4.78;;;2.72;;
2548;SDS011;1284;53.520;10.248;2022-12-26T13:07:12;6.35;;;3.00;;
2548;SDS011;1284;53.520;10.248;2022-12-26T13:09:44;7.57;;;3.28;;
2548;SDS011;1284;53.520;10.248;2022-12-26T13:12:21;6.05;;;3.00;;
2548;SDS011;1284;53.520;10.248;2022-12-26T13:14:51;5.95;;;2.70;;
2548;SDS011;1284;53.520;10.248;2022-12-26T13:20:13;6.43;;;3.10;;
2548;SDS011;1284;53.520;10.248;2022-12-26T13:22:43;6.95;;;3.13;;
2548;SDS011;1284;53.520;10.248;2022-12-26T13:25:33;4.97;;;2.35;;
2548;SDS011;1284;53.520;10.248;2022-12-26T13:30:36;10.30;;;2.95;;
2548;SDS011;1284;53.520;10.248;2022-12-26T13:33:02;5.25;;;2.58;;
2548;SDS011;1284;53.520;10.248;2022-12-26T13:38:19;2.88;;;1.77;;
2548;SDS011;1284;53.520;10.248;2022-12-26T13:40:55;2.05;;;1.73;;
2548;SDS011;1284;53.520;10.248;2022-12-26T13:54:35;1.08;;;0.77;;
2548;SDS011;1284;53.520;10.248;2022-12-26T14:07:58;1.00;;;0.32;;
2548;SDS011;1284;53.520;10.248;2022-12-26T14:10:38;0.30;;;0.30;;
2548;SDS011;1284;53.520;10.248;2022-12-26T14:24:17;0.30;;;0.30;;
2548;SDS011;1284;53.520;10.248;2022-12-26T14:29:26;3.72;;;0.50;;
2548;SDS011;1284;53.520;10.248;2022-12-26T14:34:50;1.13;;;0.57;;
2548;SDS011;1284;53.520;10.248;2022-12-26T14:43:02;0.82;;;0.60;;
2548;SDS011;1284;53.520;10.248;2022-12-26T14:45:39;1.23;;;0.50;;
2548;SDS011;1284;53.520;10.248;2022-12-26T14:50:44;0.50;;;0.50;;
2548;SDS011;1284;53.520;10.248;2022-12-26T15:08:53;4.35;;;0.73;;
2548;SDS011;1284;53.520;10.248;2022-12-26T15:17:07;0.70;;;0.47;;
2548;SDS011;1284;53.520;10.248;2022-12-26T15:22:48;4.68;;;1.00;;
2548;SDS011;1284;53.520;10.248;2022-12-26T15:33:38;0.73;;;0.50;;
2548;SDS011;1284;53.520;10.248;2022-12-26T15:36:14;5.35;;;0.47;;
2548;SDS011;1284;53.520;10.248;2022-12-26T15:39:00;2.20;;;0.60;;
2548;SDS011;1284;53.520;10.248;2022-12-26T15:44:42;0.85;;;0.70;;
2548;SDS011;1284;53.520;10.248;2022-12-26T15:52:57;2.67;;;1.10;;
2548;SDS011;1284;53.520;10.248;2022-12-26T15:58:06;2.08;;;0.90;;
2548;SDS011;1284;53.520;10.248;2022-12-26T16:00:51;3.15;;;0.80;;
2548;SDS011;1284;53.520;10.248;2022-12-26T16:11:30;2.72;;;0.82;;
2548;SDS011;1284;53.520;10.248;2022-12-26T16:14:12;0.73;;;0.50;;
2548;SDS011;1284;53.520;10.248;2022-12-26T16:16:48;3.92;;;0.73;;
2548;SDS011;1284;53.520;10.248;2022-12-26T16:21:39;1.85;;;0.50;;
2548;SDS011;1284;53.520;10.248;2022-12-26T16:24:23;0.57;;;0.57;;
2548;SDS011;1284;53.520;10.248;2022-12-26T16:26:51;5.82;;;1.02;;
2548;SDS011;1284;53.520;10.248;2022-12-26T16:29:18;3.58;;;1.48;;
2548;SDS011;1284;53.520;10.248;2022-12-26T16:31:45;0.40;;;0.40;;
2548;SDS011;1284;53.520;10.248;2022-12-26T16:34:18;2.45;;;0.80;;
2548;SDS011;1284;53.520;10.248;2022-12-26T16:36:45;0.90;;;0.80;;
2548;SDS011;1284;53.520;10.248;2022-12-26T16:39:18;6.38;;;1.08;;
2548;SDS011;1284;53.520;10.248;2022-12-26T16:41:59;2.10;;;0.77;;
2548;SDS011;1284;53.520;10.248;2022-12-26T16:44:33;5.85;;;1.85;;
2548;SDS011;1284;53.520;10.248;2022-12-26T16:49:29;4.47;;;1.20;;
2548;SDS011;1284;53.520;10.248;2022-12-26T16:51:56;2.55;;;1.48;;
2548;SDS011;1284;53.520;10.248;2022-12-26T16:56:56;7.05;;;2.15;;
2548;SDS011;1284;53.520;10.248;2022-12-26T16:59:29;7.13;;;1.02;;
2548;SDS011;1284;53.520;10.248;2022-12-26T17:02:14;3.10;;;0.73;;
2548;SDS011;1284;53.520;10.248;2022-12-26T17:04:54;3.90;;;0.85;;
2548;SDS011;1284;53.520;10.248;2022-12-26T17:07:24;3.90;;;0.70;;
2548;SDS011;1284;53.520;10.248;2022-12-26T17:09:52;2.03;;;0.73;;
2548;SDS011;1284;53.520;10.248;2022-12-26T17:12:24;1.10;;;0.90;;
2548;SDS011;1284;53.520;10.248;2022-12-26T17:15:01;3.08;;;1.00;;
2548;SDS011;1284;53.520;10.248;2022-12-26T17:17:30;0.40;;;0.40;;
2548;SDS011;1284;53.520;10.248;2022-12-26T17:26:16;5.22;;;1.40;;
2548;SDS011;1284;53.520;10.248;2022-12-26T17:28:50;7.53;;;1.60;;
2548;SDS011;1284;53.520;10.248;2022-12-26T17:31:20;4.50;;;1.08;;
2548;SDS011;1284;53.520;10.248;2022-12-26T17:34:01;7.00;;;1.60;;
2548;SDS011;1284;53.520;10.248;2022-12-26T17:36:32;4.55;;;0.70;;
2548;SDS011;1284;53.520;10.248;2022-12-26T17:39:18;3.65;;;1.00;;
2548;SDS011;1284;53.520;10.248;2022-12-26T17:41:51;6.13;;;1.63;;
2548;SDS011;1284;53.520;10.248;2022-12-26T17:49:52;0.95;;;0.60;;
2548;SDS011;1284;53.520;10.248;2022-12-26T17:52:28;1.73;;;1.05;;
2548;SDS011;1284;53.520;10.248;2022-12-26T17:54:55;1.00;;;0.63;;
2548;SDS011;1284;53.520;10.248;2022-12-26T17:57:23;7.18;;;1.42;;
2548;SDS011;1284;53.520;10.248;2022-12-26T17:59:50;3.53;;;1.83;;
2548;SDS011;1284;53.520;10.248;2022-12-26T18:02:18;4.03;;;1.27;;
2548;SDS011;1284;53.520;10.248;2022-12-26T18:04:45;9.52;;;2.95;;
2548;SDS011;1284;53.520;10.248;2022-12-26T18:07:11;9.50;;;2.13;;
2548;SDS011;1284;53.520;10.248;2022-12-26T18:09:42;7.55;;;1.98;;
2548;SDS011;1284;53.520;10.248;2022-12-26T18:12:12;2.30;;;1.35;;
2548;SDS011;1284;53.520;10.248;2022-12-26T18:14:40;9.30;;;4.85;;
2548;SDS011;1284;53.520;10.248;2022-12-26T18:17:06;9.30;;;4.72;;
2548;SDS011;1284;53.520;10.248;2022-12-26T18:19:32;6.47;;;1.83;;
2548;SDS011;1284;53.520;10.248;2022-12-26T18:21:59;9.88;;;4.10;;
2548;SDS011;1284;53.520;10.248;2022-12-26T18:24:24;8.30;;;1.95;;
2548;SDS011;1284;53.520;10.248;2022-12-26T18:26:50;2.88;;;2.40;;
2548;SDS011;1284;53.520;10.248;2022-12-26T18:29:15;11.63;;;2.13;;
2548;SDS011;1284;53.520;10.248;2022-12-26T18:31:41;3.05;;;1.95;;
2548;SDS011;1284;53.520;10.248;2022-12-26T18:34:06;2.63;;;1.52;;
2548;SDS011;1284;53.520;10.248;2022-12-26T18:36:32;2.97;;;1.88;;
2548;SDS011;1284;53.520;10.248;2022-12-26T18:38:59;4.07;;;2.05;;
2548;SDS011;1284;53.520;10.248;2022-12-26T18:41:25;3.75;;;1.63;;
2548;SDS011;1284;53.520;10.248;2022-12-26T18:43:51;7.90;;;1.40;;
2548;SDS011;1284;53.520;10.248;2022-12-26T18:46:20;5.15;;;2.50;;
2548;SDS011;1284;53.520;10.248;2022-12-26T18:48:48;10.43;;;4.85;;
2548;SDS011;1284;53.520;10.248;2022-12-26T18:51:14;8.23;;;2.22;;
2548;SDS011;1284;53.520;10.248;2022-12-26T18:53:40;8.05;;;3.33;;
2548;SDS011;1284;53.520;10.248;2022-12-26T18:56:05;6.72;;;2.55;;
2548;SDS011;1284;53.520;10.248;2022-12-26T18:58:33;16.77;;;4.03;;
2548;SDS011;1284;53.520;10.248;2022-12-26T19:00:59;10.13;;;3.05;;
2548;SDS011;1284;53.520;10.248;2022-12-26T19:03:27;13.60;;;7.18;;
2548;SDS011;1284;53.520;10.248;2022-12-26T19:05:52;4.93;;;3.10;;
2548;SDS011;1284;53.520;10.248;2022-12-26T19:08:17;10.93;;;5.40;;
2548;SDS011;1284;53.520;10.248;2022-12-26T19:10:43;7.85;;;3.25;;
2548;SDS011;1284;53.520;10.248;2022-12-26T19:13:10;10.65;;;3.88;;
2548;SDS011;1284;53.520;10.248;2022-12-26T19:15:36;9.82;;;4.57;;
2548;SDS011;1284;53.520;10.248;2022-12-26T19:18:02;5.97;;;2.03;;
2548;SDS011;1284;53.520;10.248;2022-12-26T19:20:28;2.92;;;1.63;;
2548;SDS011;1284;53.520;10.248;2022-12-26T19:22:54;2.10;;;1.40;;
2548;SDS011;1284;53.520;10.248;2022-12-26T19:25:20;11.02;;;2.03;;
2548;SDS011;1284;53.520;10.248;2022-12-26T19:27:47;8.95;;;2.90;;
2548;SDS011;1284;53.520;10.248;2022-12-26T19:30:15;1.52;;;1.17;;
2548;SDS011;1284;53.520;10.248;2022-12-26T19:32:42;4.07;;;2.22;;
2548;SDS011;1284;53.520;10.248;2022-12-26T19:35:08;2.78;;;1.83;;
2548;SDS011;1284;53.520;10.248;2022-12-26T19:37:34;5.72;;;1.80;;
2548;SDS011;1284;53.520;10.248;2022-12-26T19:40:00;2.80;;;2.00;;
2548;SDS011;1284;53.520;10.248;2022-12-26T19:42:26;2.90;;;2.10;;
2548;SDS011;1284;53.520;10.248;2022-12-26T19:44:51;9.98;;;4.07;;
2548;SDS011;1284;53.520;10.248;2022-12-26T19:47:17;5.28;;;2.22;;
2548;SDS011;1284;53.520;10.248;2022-12-26T19:49:43;2.88;;;1.63;;
2548;SDS011;1284;53.520;10.248;2022-12-26T19:52:09;11.90;;;2.15;;
2548;SDS011;1284;53.520;10.248;2022-12-26T19:54:36;4.88;;;2.78;;